createdAt,value
2023-02-02T00:01:58.720Z,4.72
2023-02-02T00:04:32.535Z,4.05
2023-02-02T00:07:03.715Z,5.00
2023-02-02T00:09:33.884Z,4.10
2023-02-02T00:12:03.820Z,4.22
2023-02-02T00:14:32.992Z,4.50
2023-02-02T00:17:02.582Z,3.83
2023-02-02T00:19:33.601Z,4.65
2023-02-02T00:22:03.361Z,6.63
2023-02-02T00:24:32.875Z,3.97
2023-02-02T00:27:02.828Z,4.47
2023-02-02T00:29:33.439Z,4.35
2023-02-02T00:32:02.984Z,4.78
2023-02-02T00:34:33.654Z,3.75
2023-02-02T00:37:03.120Z,4.95
2023-02-02T00:39:32.421Z,4.07
2023-02-02T00:42:01.883Z,5.30
2023-02-02T00:44:48.488Z,5.05
2023-02-02T00:47:18.340Z,5.53
2023-02-02T00:49:49.255Z,4.70
2023-02-02T00:52:18.763Z,5.40
2023-02-02T00:54:48.083Z,7.30
2023-02-02T00:57:17.828Z,4.75
2023-02-02T00:59:47.145Z,4.18
2023-02-02T01:02:16.926Z,5.10
2023-02-02T01:04:46.285Z,5.13
2023-02-02T01:07:17.242Z,4.80
2023-02-02T01:09:46.590Z,7.90
2023-02-02T01:12:15.987Z,5.00
2023-02-02T01:14:45.469Z,5.00
2023-02-02T01:17:15.556Z,6.18
2023-02-02T01:22:16.467Z,5.35
2023-02-02T01:24:45.817Z,5.10
2023-02-02T01:27:15.428Z,8.10
2023-02-02T01:29:45.162Z,5.20
2023-02-02T01:32:14.840Z,3.83
2023-02-02T01:34:44.024Z,5.40
2023-02-02T01:37:13.800Z,6.43
2023-02-02T01:39:44.642Z,6.32
2023-02-02T01:42:17.029Z,5.28
2023-02-02T01:45:14.501Z,2.95
2023-02-02T01:47:48.720Z,4.68
2023-02-02T01:50:19.350Z,5.05
2023-02-02T01:52:52.527Z,4.82
2023-02-02T01:55:27.773Z,4.45
2023-02-02T01:58:00.536Z,6.65
2023-02-02T02:00:30.078Z,5.95
2023-02-02T02:03:07.526Z,4.90
2023-02-02T02:05:42.631Z,4.25
2023-02-02T02:08:16.690Z,4.97
2023-02-02T02:10:47.593Z,4.68
2023-02-02T02:13:18.221Z,4.28
2023-02-02T02:16:12.324Z,4.28
2023-02-02T02:18:50.521Z,4.22
2023-02-02T02:22:06.406Z,4.95
2023-02-02T02:25:32.652Z,4.05
2023-02-02T02:28:29.481Z,5.03
2023-02-02T02:31:19.499Z,4.78
2023-02-02T02:33:59.266Z,4.53
2023-02-02T02:36:38.553Z,4.85
2023-02-02T02:39:16.411Z,4.70
2023-02-02T02:41:51.187Z,5.35
2023-02-02T02:44:23.208Z,4.15
2023-02-02T02:46:54.109Z,4.18
2023-02-02T02:49:24.902Z,4.97
2023-02-02T02:51:55.779Z,4.38
2023-02-02T02:54:32.549Z,5.00
2023-02-02T02:57:20.321Z,5.80
2023-02-02T02:59:58.303Z,4.50
2023-02-02T03:02:37.278Z,5.30
2023-02-02T03:05:18.590Z,5.05
2023-02-02T03:07:54.596Z,3.38
2023-02-02T03:10:28.091Z,4.00
2023-02-02T03:12:57.862Z,3.85
2023-02-02T03:15:27.187Z,3.92
2023-02-02T03:17:56.888Z,3.47
2023-02-02T03:20:27.324Z,4.38
2023-02-02T03:22:56.826Z,4.75
2023-02-02T03:25:26.083Z,3.58
2023-02-02T03:27:55.777Z,7.00
2023-02-02T03:31:18.334Z,4.18
2023-02-02T03:33:48.066Z,4.18
2023-02-02T03:36:18.625Z,4.18
2023-02-02T03:38:47.984Z,3.90
2023-02-02T03:41:17.084Z,4.43
2023-02-02T03:43:46.490Z,4.00
2023-02-02T03:46:15.729Z,4.10
2023-02-02T03:48:45.149Z,5.68
2023-02-02T03:51:15.621Z,4.22
2023-02-02T03:53:47.708Z,4.88
2023-02-02T03:56:19.361Z,6.28
2023-02-02T03:58:48.782Z,4.63
2023-02-02T04:01:17.928Z,5.67
2023-02-02T04:03:47.443Z,4.40
2023-02-02T04:06:16.473Z,7.50
2023-02-02T04:08:47.389Z,4.43
2023-02-02T04:11:16.536Z,4.85
2023-02-02T04:13:46.140Z,4.82
2023-02-02T04:16:15.499Z,4.55
2023-02-02T04:18:44.831Z,4.47
2023-02-02T04:21:14.048Z,4.38
2023-02-02T04:23:43.365Z,4.88
2023-02-02T04:26:13.795Z,3.83
2023-02-02T04:28:43.172Z,4.55
2023-02-02T04:31:12.516Z,4.85
2023-02-02T04:33:41.901Z,3.17
2023-02-02T04:36:11.776Z,4.40
2023-02-02T04:38:41.287Z,4.55
2023-02-02T04:41:14.605Z,5.10
2023-02-02T04:43:44.226Z,4.05
2023-02-02T04:46:13.724Z,6.18
2023-02-02T04:48:43.698Z,4.15
2023-02-02T04:51:15.277Z,3.20
2023-02-02T04:53:44.925Z,3.67
2023-02-02T04:56:18.002Z,2.85
2023-02-02T04:58:47.954Z,3.88
2023-02-02T05:01:20.104Z,4.10
2023-02-02T05:03:49.941Z,3.60
2023-02-02T05:06:19.834Z,3.33
2023-02-02T05:08:49.858Z,4.07
2023-02-02T05:11:22.516Z,3.35
2023-02-02T05:13:54.146Z,3.47
2023-02-02T05:16:25.937Z,3.50
2023-02-02T05:18:59.570Z,3.40
2023-02-02T05:21:28.880Z,3.08
2023-02-02T05:23:59.788Z,3.95
2023-02-02T05:26:31.064Z,5.03
2023-02-02T05:29:00.487Z,3.08
2023-02-02T05:31:30.970Z,3.80
2023-02-02T05:34:00.833Z,3.05
2023-02-02T05:36:30.104Z,3.40
2023-02-02T05:39:00.573Z,3.30
2023-02-02T05:41:31.208Z,3.53
2023-02-02T05:44:01.575Z,2.90
2023-02-02T05:46:30.947Z,3.38
2023-02-02T05:49:00.276Z,3.40
2023-02-02T05:51:32.879Z,3.95
2023-02-02T05:54:02.527Z,3.85
2023-02-02T05:56:33.026Z,4.45
2023-02-02T05:59:05.052Z,3.25
2023-02-02T06:01:34.971Z,3.88
2023-02-02T06:04:04.530Z,3.13
2023-02-02T06:06:35.673Z,4.03
2023-02-02T06:09:05.295Z,3.67
2023-02-02T06:11:36.754Z,4.30
2023-02-02T06:14:06.357Z,4.70
2023-02-02T06:16:35.555Z,5.28
2023-02-02T06:19:05.245Z,3.75
2023-02-02T06:21:34.632Z,5.00
2023-02-02T06:24:03.963Z,4.20
2023-02-02T06:26:33.177Z,5.50
2023-02-02T06:29:04.189Z,2.75
2023-02-02T06:31:34.076Z,3.83
2023-02-02T06:34:03.769Z,2.85
2023-02-02T06:36:33.122Z,3.95
2023-02-02T06:39:04.845Z,3.97
2023-02-02T06:41:34.272Z,3.45
2023-02-02T06:44:05.167Z,2.72
2023-02-02T06:46:34.576Z,2.47
2023-02-02T06:49:03.964Z,3.40
2023-02-02T06:51:33.142Z,2.40
2023-02-02T06:54:03.930Z,2.53
2023-02-02T06:56:33.262Z,2.22
2023-02-02T06:59:03.946Z,2.20
2023-02-02T07:01:33.624Z,2.00
2023-02-02T07:06:32.625Z,2.33
2023-02-02T07:11:40.738Z,2.47
2023-02-02T07:14:16.982Z,2.33
2023-02-02T07:16:46.326Z,2.22
2023-02-02T07:19:15.608Z,2.33
2023-02-02T07:21:44.947Z,2.17
2023-02-02T07:24:14.430Z,2.40
2023-02-02T07:26:43.618Z,2.97
2023-02-02T07:29:15.555Z,2.53
2023-02-02T07:31:45.096Z,2.70
2023-02-02T07:34:14.811Z,2.72
2023-02-02T07:36:44.476Z,2.00
2023-02-02T07:39:14.034Z,2.55
2023-02-02T07:41:43.949Z,2.00
2023-02-02T07:44:27.176Z,2.40
2023-02-02T07:46:56.749Z,2.55
2023-02-02T07:49:26.136Z,2.75
2023-02-02T07:51:55.108Z,2.53
2023-02-02T07:54:24.954Z,2.83
2023-02-02T07:56:54.171Z,3.35
2023-02-02T07:59:23.570Z,2.67
2023-02-02T08:01:54.135Z,3.10
2023-02-02T08:04:23.626Z,3.30
2023-02-02T08:06:52.675Z,3.10
2023-02-02T08:09:22.437Z,2.70
2023-02-02T08:11:51.438Z,2.75
2023-02-02T08:14:22.584Z,2.80
2023-02-02T08:16:52.962Z,2.97
2023-02-02T08:19:22.518Z,2.65
2023-02-02T08:21:51.523Z,3.53
2023-02-02T08:24:21.072Z,3.58
2023-02-02T08:26:50.528Z,2.65
2023-02-02T08:29:19.879Z,2.83
2023-02-02T08:31:49.141Z,3.33
2023-02-02T08:34:19.864Z,3.35
2023-02-02T08:36:49.229Z,3.38
2023-02-02T08:39:18.906Z,3.78
2023-02-02T08:41:48.053Z,3.30
2023-02-02T08:44:17.763Z,3.63
2023-02-02T08:46:48.640Z,2.97
2023-02-02T08:49:19.566Z,3.80
2023-02-02T08:51:49.046Z,2.15
2023-02-02T08:54:18.493Z,3.33
2023-02-02T08:56:47.531Z,2.60
2023-02-02T08:59:17.311Z,2.67
2023-02-02T09:01:46.461Z,3.72
2023-02-02T09:04:18.552Z,2.85
2023-02-02T09:06:47.668Z,3.47
2023-02-02T09:09:17.843Z,2.50
2023-02-02T09:11:47.266Z,1.80
2023-02-02T09:14:16.893Z,2.72
2023-02-02T09:16:46.108Z,3.05
2023-02-02T09:19:15.549Z,2.42
2023-02-02T09:21:46.110Z,2.67
2023-02-02T09:24:16.265Z,1.88
2023-02-02T09:26:46.240Z,2.83
2023-02-02T09:29:19.028Z,2.22
2023-02-02T09:31:48.428Z,2.60
2023-02-02T09:34:18.455Z,2.65
2023-02-02T09:36:49.111Z,3.30
2023-02-02T09:39:19.553Z,2.47
2023-02-02T09:45:02.940Z,2.67
2023-02-02T09:47:53.567Z,2.95
2023-02-02T09:50:48.461Z,3.25
2023-02-02T09:53:29.946Z,2.47
2023-02-02T09:56:05.336Z,2.20
2023-02-02T09:58:38.923Z,2.83
2023-02-02T10:01:13.921Z,2.35
2023-02-02T10:03:51.385Z,3.22
2023-02-02T10:06:29.907Z,2.40
2023-02-02T10:09:08.674Z,2.67
2023-02-02T10:11:45.773Z,2.23
2023-02-02T10:14:20.920Z,2.08
2023-02-02T10:16:55.022Z,1.67
2023-02-02T10:19:29.272Z,1.90
2023-02-02T10:22:06.724Z,1.80
2023-02-02T10:24:37.763Z,1.88
2023-02-02T10:27:14.272Z,2.47
2023-02-02T10:29:52.377Z,2.40
2023-02-02T10:32:26.521Z,2.03
2023-02-02T10:35:22.987Z,2.88
2023-02-02T10:37:58.991Z,1.58
2023-02-02T10:40:46.779Z,2.28
2023-02-02T10:43:47.407Z,2.03
2023-02-02T10:46:21.254Z,2.30
2023-02-02T10:48:53.061Z,2.13
2023-02-02T10:51:25.476Z,1.60
2023-02-02T10:53:56.783Z,1.40
2023-02-02T10:56:35.183Z,1.20
2023-02-02T10:59:09.116Z,1.47
2023-02-02T11:01:38.408Z,1.30
2023-02-02T11:04:27.990Z,1.42
2023-02-02T11:06:59.301Z,1.92
2023-02-02T11:09:36.562Z,1.60
2023-02-02T11:12:18.960Z,1.85
2023-02-02T11:14:53.678Z,2.00
2023-02-02T11:17:25.126Z,1.83
2023-02-02T11:19:56.244Z,2.08
2023-02-02T11:22:33.464Z,2.00
2023-02-02T11:25:09.822Z,1.80
2023-02-02T11:27:43.599Z,1.75
2023-02-02T11:30:26.696Z,1.45
2023-02-02T11:32:56.477Z,2.35
2023-02-02T11:35:27.020Z,1.50
2023-02-02T11:37:59.426Z,2.63
2023-02-02T11:40:33.578Z,3.22
2023-02-02T11:43:07.602Z,2.05
2023-02-02T11:45:42.050Z,2.03
2023-02-02T11:48:18.705Z,1.67
2023-02-02T11:50:50.105Z,2.67
2023-02-02T11:53:26.017Z,2.22
2023-02-02T11:55:57.846Z,2.10
2023-02-02T11:58:30.092Z,2.00
2023-02-02T12:01:02.717Z,1.58
2023-02-02T12:03:34.915Z,2.40
2023-02-02T12:06:20.496Z,0.85
2023-02-02T12:08:50.345Z,1.67
2023-02-02T12:11:38.665Z,2.03
2023-02-02T12:14:32.050Z,1.80
2023-02-02T12:17:18.827Z,1.08
2023-02-02T12:20:13.385Z,2.08
2023-02-02T12:23:14.557Z,1.95
2023-02-02T12:26:09.438Z,1.63
2023-02-02T12:28:55.604Z,2.20
2023-02-02T12:31:36.364Z,1.45
2023-02-02T12:34:13.243Z,1.80
2023-02-02T12:36:51.692Z,1.67
2023-02-02T12:39:32.796Z,1.63
2023-02-02T12:42:23.260Z,1.70
2023-02-02T12:45:18.271Z,1.60
2023-02-02T12:48:01.228Z,1.45
2023-02-02T12:50:37.447Z,1.65
2023-02-02T12:53:25.087Z,1.52
2023-02-02T12:56:05.574Z,1.95
2023-02-02T12:58:43.943Z,1.52
2023-02-02T13:01:30.655Z,1.92
2023-02-02T13:04:23.994Z,2.05
2023-02-02T13:07:20.855Z,2.13
2023-02-02T13:10:00.324Z,3.00
2023-02-02T13:12:33.596Z,1.80
2023-02-02T13:15:07.785Z,3.67
2023-02-02T13:17:43.365Z,2.60
2023-02-02T13:20:35.881Z,3.05
2023-02-02T13:23:13.602Z,2.47
2023-02-02T13:25:48.751Z,2.67
2023-02-02T13:28:34.897Z,3.85
2023-02-02T13:31:12.776Z,3.67
2023-02-02T13:33:45.193Z,3.47
2023-02-02T13:36:26.037Z,4.03
2023-02-02T13:38:59.704Z,4.03
2023-02-02T13:41:30.620Z,3.30
2023-02-02T13:44:07.163Z,4.30
2023-02-02T13:46:44.349Z,3.20
2023-02-02T13:49:17.764Z,4.53
2023-02-02T13:52:03.742Z,3.53
2023-02-02T13:54:55.149Z,3.85
2023-02-02T13:57:53.297Z,4.22
2023-02-02T14:00:25.260Z,3.38
2023-02-02T14:02:56.565Z,2.92
2023-02-02T14:05:30.141Z,3.70
2023-02-02T14:08:06.719Z,3.13
2023-02-02T14:10:39.061Z,2.83
2023-02-02T14:13:35.143Z,3.33
2023-02-02T14:16:07.358Z,3.30
2023-02-02T14:18:57.529Z,3.33
2023-02-02T14:24:50.175Z,3.30
2023-02-02T14:27:56.265Z,2.85
2023-02-02T14:30:33.153Z,2.63
2023-02-02T14:33:42.401Z,4.35
2023-02-02T14:36:16.887Z,3.08
2023-02-02T14:39:17.347Z,3.03
2023-02-02T14:42:42.992Z,2.63
2023-02-02T14:45:28.165Z,3.10
2023-02-02T14:48:01.335Z,3.90
2023-02-02T14:50:43.766Z,4.18
2023-02-02T14:53:25.081Z,3.22
2023-02-02T14:56:02.155Z,3.05
2023-02-02T14:58:34.298Z,2.25
2023-02-02T15:01:13.655Z,3.35
2023-02-02T15:03:56.084Z,2.50
2023-02-02T15:06:34.898Z,2.83
2023-02-02T15:09:43.308Z,3.97
2023-02-02T15:12:31.377Z,4.93
2023-02-02T15:15:12.892Z,2.65
2023-02-02T15:18:01.050Z,2.95
2023-02-02T15:20:34.599Z,3.53
2023-02-02T15:23:10.643Z,3.65
2023-02-02T15:25:48.010Z,2.80
2023-02-02T15:28:22.688Z,2.83
2023-02-02T15:31:01.662Z,3.50
2023-02-02T15:33:39.776Z,7.40
2023-02-02T15:36:15.415Z,6.25
2023-02-02T15:38:48.919Z,7.90
2023-02-02T15:41:23.811Z,3.90
2023-02-02T15:43:53.481Z,4.82
2023-02-02T15:46:26.476Z,2.45
2023-02-02T15:49:34.362Z,3.38
2023-02-02T15:52:14.716Z,3.30
2023-02-02T15:54:54.272Z,3.30
2023-02-02T15:57:28.763Z,4.10
2023-02-02T16:00:01.597Z,4.38
2023-02-02T16:02:44.154Z,3.70
2023-02-02T16:05:41.792Z,4.50
2023-02-02T16:08:19.191Z,2.80
2023-02-02T16:10:50.320Z,3.30
2023-02-02T16:13:26.409Z,3.75
2023-02-02T16:15:59.431Z,7.47
2023-02-02T16:18:30.572Z,3.63
2023-02-02T16:21:06.075Z,4.45
2023-02-02T16:23:37.151Z,3.13
2023-02-02T16:26:10.769Z,3.67
2023-02-02T16:28:41.009Z,3.33
2023-02-02T16:31:11.078Z,2.90
2023-02-02T16:33:42.837Z,2.85
2023-02-02T16:36:25.542Z,2.38
2023-02-02T16:38:57.846Z,3.50
2023-02-02T16:41:33.019Z,2.70
2023-02-02T16:44:29.651Z,2.70
2023-02-02T16:47:00.694Z,3.45
2023-02-02T16:49:31.390Z,2.95
2023-02-02T16:52:21.926Z,2.78
2023-02-02T16:54:57.060Z,3.10
2023-02-02T16:57:31.173Z,3.38
2023-02-02T17:00:06.922Z,2.63
2023-02-02T17:02:42.539Z,3.08
2023-02-02T17:05:24.311Z,3.55
2023-02-02T17:08:01.159Z,2.53
2023-02-02T17:10:33.556Z,3.58
2023-02-02T17:13:05.429Z,2.83
2023-02-02T17:15:37.205Z,3.75
2023-02-02T17:18:07.501Z,4.13
2023-02-02T17:23:09.872Z,3.53
2023-02-02T17:25:42.647Z,2.65
2023-02-02T17:28:17.500Z,2.95
2023-02-02T17:30:49.383Z,3.85
2023-02-02T17:33:20.889Z,3.97
2023-02-02T17:35:56.087Z,3.25
2023-02-02T17:38:28.756Z,42.95
2023-02-02T17:41:01.676Z,29.67
2023-02-02T17:43:34.178Z,19.58
2023-02-02T17:46:05.057Z,7.10
2023-02-02T17:48:37.019Z,8.77
2023-02-02T17:51:07.510Z,4.57
2023-02-02T17:53:38.706Z,4.15
2023-02-02T17:56:08.534Z,4.13
2023-02-02T18:01:08.586Z,4.78
2023-02-02T18:03:41.401Z,11.68
2023-02-02T18:06:12.031Z,4.40
2023-02-02T18:08:43.114Z,4.72
2023-02-02T18:11:15.800Z,6.70
2023-02-02T18:13:47.485Z,4.13
2023-02-02T18:16:19.832Z,5.35
2023-02-02T18:18:49.245Z,4.15
2023-02-02T18:21:18.442Z,4.10
2023-02-02T18:23:50.745Z,4.07
2023-02-02T18:26:22.844Z,3.30
2023-02-02T18:28:53.627Z,3.28
2023-02-02T18:31:26.593Z,3.83
2023-02-02T18:33:56.297Z,3.42
2023-02-02T18:36:25.768Z,3.58
2023-02-02T18:38:58.447Z,3.60
2023-02-02T18:41:28.727Z,3.33
2023-02-02T18:44:00.654Z,3.30
2023-02-02T18:46:36.289Z,2.33
2023-02-02T18:49:06.197Z,3.13
2023-02-02T18:51:35.676Z,3.65
2023-02-02T18:54:06.727Z,2.97
2023-02-02T18:56:36.291Z,3.72
2023-02-02T18:59:06.822Z,4.03
2023-02-02T19:01:37.271Z,3.17
2023-02-02T19:04:06.870Z,3.38
2023-02-02T19:06:53.740Z,2.20
2023-02-02T19:09:26.755Z,3.00
2023-02-02T19:11:56.082Z,2.97
2023-02-02T19:14:29.567Z,3.30
2023-02-02T19:17:09.588Z,3.88
2023-02-02T19:19:40.604Z,3.20
2023-02-02T19:22:21.370Z,2.65
2023-02-02T19:24:54.346Z,3.42
2023-02-02T19:27:26.939Z,3.05
2023-02-02T19:29:59.886Z,2.85
2023-02-02T19:32:32.643Z,3.40
2023-02-02T19:35:02.720Z,4.15
2023-02-02T19:37:34.514Z,3.72
2023-02-02T19:40:18.509Z,3.38
2023-02-02T19:42:55.865Z,4.13
2023-02-02T19:45:28.944Z,4.10
2023-02-02T19:48:01.498Z,3.95
2023-02-02T19:50:38.936Z,3.17
2023-02-02T19:53:15.608Z,4.45
2023-02-02T19:55:46.523Z,4.32
2023-02-02T19:58:21.863Z,4.65
2023-02-02T20:00:52.873Z,3.88
2023-02-02T20:03:27.477Z,4.25
2023-02-02T20:05:58.949Z,5.30
2023-02-02T20:08:33.861Z,7.88
2023-02-02T20:11:19.251Z,6.40
2023-02-02T20:13:49.486Z,7.15
2023-02-02T20:16:21.546Z,6.20
2023-02-02T20:18:57.034Z,6.97
2023-02-02T20:21:35.324Z,7.05
2023-02-02T20:24:05.665Z,6.70
2023-02-02T20:26:39.359Z,7.30
2023-02-02T20:29:18.589Z,5.03
2023-02-02T20:31:49.016Z,4.40
2023-02-02T20:34:25.204Z,4.25
2023-02-02T20:36:58.552Z,4.75
2023-02-02T20:39:36.612Z,4.57
2023-02-02T20:42:08.700Z,4.20
2023-02-02T20:44:38.588Z,4.40
2023-02-02T20:47:08.886Z,4.57
2023-02-02T20:49:40.769Z,4.55
2023-02-02T20:52:18.218Z,4.43
2023-02-02T20:54:47.760Z,7.55
2023-02-02T20:57:19.428Z,6.38
2023-02-02T20:59:51.131Z,5.25
2023-02-02T21:02:22.656Z,6.45
2023-02-02T21:04:52.763Z,5.13
2023-02-02T21:07:23.025Z,5.00
2023-02-02T21:12:25.564Z,4.43
2023-02-02T21:14:55.338Z,4.10
2023-02-02T21:17:25.135Z,6.63
2023-02-02T21:19:54.740Z,6.13
2023-02-02T21:22:24.039Z,4.85
2023-02-02T21:24:54.993Z,5.75
2023-02-02T21:27:25.742Z,5.20
2023-02-02T21:29:54.908Z,4.75
2023-02-02T21:32:24.171Z,5.30
2023-02-02T21:34:54.631Z,4.90
2023-02-02T21:37:23.540Z,5.50
2023-02-02T21:39:57.593Z,3.55
2023-02-02T21:42:29.644Z,5.35
2023-02-02T21:45:07.931Z,4.45
2023-02-02T21:50:20.431Z,6.63
2023-02-02T21:52:51.852Z,11.13
2023-02-02T21:55:33.996Z,6.97
2023-02-02T21:58:23.344Z,15.52
2023-02-02T22:00:53.956Z,10.77
2023-02-02T22:03:29.243Z,6.20
2023-02-02T22:06:24.294Z,4.93
2023-02-02T22:09:01.192Z,5.13
2023-02-02T22:11:37.164Z,5.30
2023-02-02T22:14:18.708Z,5.25
2023-02-02T22:16:50.827Z,7.72
2023-02-02T22:19:29.494Z,8.32
2023-02-02T22:22:16.517Z,6.40
2023-02-02T22:24:47.402Z,5.70
2023-02-02T22:27:22.947Z,5.97
2023-02-02T22:29:58.157Z,5.53
2023-02-02T22:32:27.647Z,7.20
2023-02-02T22:34:56.717Z,6.10
2023-02-02T22:37:26.038Z,7.85
2023-02-02T22:39:55.053Z,10.33
2023-02-02T22:42:24.752Z,8.40
2023-02-02T22:44:55.203Z,9.40
2023-02-02T22:47:24.495Z,8.75
2023-02-02T22:49:53.588Z,8.03
2023-02-02T22:52:22.861Z,6.95
2023-02-02T22:54:52.138Z,7.47
2023-02-02T22:57:21.480Z,8.00
2023-02-02T22:59:50.578Z,7.95
2023-02-02T23:02:21.283Z,8.15
2023-02-02T23:04:50.823Z,7.40
2023-02-02T23:07:20.069Z,7.75
2023-02-02T23:09:49.500Z,6.93
2023-02-02T23:12:18.758Z,7.50
2023-02-02T23:14:47.844Z,6.73
2023-02-02T23:17:17.283Z,6.80
2023-02-02T23:19:47.989Z,6.80
2023-02-02T23:22:17.479Z,6.28
2023-02-02T23:24:46.488Z,7.73
2023-02-02T23:27:15.898Z,7.50
2023-02-02T23:29:44.999Z,6.95
2023-02-02T23:32:14.399Z,7.50
2023-02-02T23:34:43.386Z,6.82
2023-02-02T23:37:14.193Z,6.85
2023-02-02T23:39:43.433Z,7.35
2023-02-02T23:42:12.811Z,8.50
2023-02-02T23:44:41.930Z,8.05
2023-02-02T23:47:11.750Z,7.75
2023-02-02T23:49:41.184Z,7.55
2023-02-02T23:52:10.646Z,8.15
2023-02-02T23:54:41.483Z,8.97
2023-02-02T23:57:11.267Z,8.20
2023-02-02T23:59:40.410Z,8.25
